Cressey, California
Current Conditions -  °F | °C
As of 7:45 AM on Wednesday 26 Nov 2014 (Local Time) from KMER Reporting Station
Haze Haze  
Wind Chill: 39°   Ceiling: Unl
Heat Index: 39°   Visibility: 3mi
Dew Point: 39°   Wind: 0mph
Humidity: 100%   Direction: NA
Pressure: 30.34"   Gusts: NA
Location:  37.42°N, 120.67°W
Report Text: KMER 261545Z 00000KT 3SM BR SKC 04/04 A3034
Loading
Personal Weather Stations






























Interactive Weather Map New forecast layout! Learn more

10-Day Weather Forecast

Advertisements
Track Severe Weather on mobile